Time;durP1;ratioP1;P1;durP2;ratioP2;P2;SDS_P1;SDS_P2;PMS_P1;PMS_P2;Temp;Humidity;BMP_temperature;BMP_pressure;BME280_temperature;BME280_humidity;BME280_pressure;Samples;Min_cycle;Max_cycle;Signal;HPM_P1;HPM_P2
2022/12/19 00:03:01;;;;;;;;;;;;;;;-4.24;100.00;102774.03;5568883;32;34293;-71
2022/12/19 00:06:09;;;;;;;;;;;;;;;-4.12;100.00;102777.38;5568860;32;34374;-71
2022/12/19 00:09:17;;;;;;;;;;;;;;;-4.05;100.00;102786.81;5568798;32;34360;-71
2022/12/19 00:12:24;;;;;;;;;;;;;;;-3.99;100.00;102785.87;5568789;32;34205;-71
2022/12/19 00:15:32;;;;;;;;;;;;;;;-3.99;100.00;102791.06;5568776;32;34887;-71
2022/12/19 00:18:42;;;;;;;;;;;;;;;-4.00;100.00;102792.78;5571424;32;34690;-70
2022/12/19 00:21:48;;;;;;;;;;;;;;;-4.05;100.00;102794.59;5571443;32;34606;-70
2022/12/19 00:24:57;;;;;;;;;;;;;;;-3.98;100.00;102785.87;5571155;32;34478;-71
2022/12/19 00:28:05;;;;;;;;;;;;;;;-4.09;100.00;102789.44;5571299;32;34630;-71
2022/12/19 00:31:12;;;;;;;;;;;;;;;-4.04;100.00;102798.91;5571237;32;34316;-71
2022/12/19 00:34:18;;;;;;;;;;;;;;;-4.15;100.00;102787.78;5557196;32;34116;-70
2022/12/19 00:37:25;;;;;;;;;;;;;;;-4.03;100.00;102786.78;5571241;32;34626;-70
2022/12/19 00:40:33;;;;;;;;;;;;;;;-3.89;100.00;102784.03;5557244;32;34015;-71
2022/12/19 00:43:40;;;;;;;;;;;;;;;-4.02;100.00;102788.53;5557530;32;34896;-70
2022/12/19 00:46:47;;;;;;;;;;;;;;;-4.09;100.00;102789.44;5571153;32;34242;-71
2022/12/19 00:49:57;;;;;;;;;;;;;;;-3.91;100.00;102785.78;5571069;32;34252;-71
2022/12/19 00:53:03;;;;;;;;;;;;;;;-3.89;100.00;102781.44;5571108;32;34765;-71
2022/12/19 00:56:13;;;;;;;;;;;;;;;-4.13;100.00;102791.22;5570964;32;34417;-71
2022/12/19 00:59:19;;;;;;;;;;;;;;;-4.22;100.00;102783.53;5570990;32;34278;-71
2022/12/19 01:02:31;;;;;;;;;;;;;;;-4.21;100.00;102774.03;5570965;32;34631;-71
2022/12/19 01:05:38;;;;;;;;;;;;;;;-3.99;100.00;102778.09;5571014;32;34249;-71
2022/12/19 01:08:47;;;;;;;;;;;;;;;-4.04;100.00;102778.16;5570980;32;34200;-71
2022/12/19 01:15:22;;;;;;;;;;;;;;;-3.74;100.00;102782.16;5570851;32;34695;-70
2022/12/19 01:18:27;;;;;;;;;;;;;;;-3.78;100.00;102774.41;5556888;32;33950;-71
2022/12/19 01:21:38;;;;;;;;;;;;;;;-3.86;100.00;102765.84;5558008;32;34653;-71
2022/12/19 01:24:47;;;;;;;;;;;;;;;-3.87;100.00;102762.41;5570847;32;34708;-70
2022/12/19 01:27:56;;;;;;;;;;;;;;;-3.78;100.00;102767.50;5570030;32;34493;-71
2022/12/19 01:31:07;;;;;;;;;;;;;;;-3.88;100.00;102755.53;5570582;32;34183;-71
2022/12/19 01:34:18;;;;;;;;;;;;;;;-3.98;100.00;102743.53;5570579;32;34343;-71
2022/12/19 01:37:24;;;;;;;;;;;;;;;-3.99;100.00;102744.41;5570704;32;34911;-71
2022/12/19 01:40:35;;;;;;;;;;;;;;;-4.06;100.00;102730.63;5570646;32;34977;-71
2022/12/19 01:43:59;;;;;;;;;;;;;;;-3.85;100.00;102726.09;5570479;32;34189;-71
2022/12/19 01:47:13;;;;;;;;;;;;;;;-3.71;100.00;102727.63;5570590;32;34999;-71
2022/12/19 01:50:25;;;;;;;;;;;;;;;-3.67;100.00;102715.47;5556475;32;34317;-71
2022/12/19 01:53:39;;;;;;;;;;;;;;;-3.59;100.00;102718.84;5570604;32;34788;-71
2022/12/19 01:56:54;;;;;;;;;;;;;;;-3.77;100.00;102717.31;5570645;32;34654;-70
2022/12/19 02:00:03;;;;;;;;;;;;;;;-3.71;100.00;102716.38;5570306;32;34478;-70
2022/12/19 02:03:15;;;;;;;;;;;;;;;-3.64;100.00;102718.03;5570880;32;34997;-71
2022/12/19 02:06:23;;;;;;;;;;;;;;;-3.60;100.00;102717.13;5570438;32;34267;-71
2022/12/19 02:09:29;;;;;;;;;;;;;;;-3.73;100.00;102719.03;5570412;32;34305;-71
2022/12/19 02:12:42;;;;;;;;;;;;;;;-3.67;100.00;102707.69;5570440;32;34291;-70
2022/12/19 02:15:49;;;;;;;;;;;;;;;-3.74;100.00;102711.25;5570354;32;34803;-71
2022/12/19 02:19:04;;;;;;;;;;;;;;;-3.52;100.00;102713.53;5570378;32;34213;-71
2022/12/19 02:22:24;;;;;;;;;;;;;;;-3.49;100.00;102715.25;5570410;32;34183;-71
2022/12/19 02:25:30;;;;;;;;;;;;;;;-3.55;100.00;102717.91;5570409;32;34956;-71
2022/12/19 02:28:40;;;;;;;;;;;;;;;-3.50;100.00;102716.12;5570266;32;34223;-69
2022/12/19 02:31:49;;;;;;;;;;;;;;;-3.57;100.00;102724.84;5570221;32;34524;-70
2022/12/19 02:35:35;;;;;;;;;;;;;;;-3.35;100.00;102720.22;5570333;32;34881;-72
2022/12/19 02:38:45;;;;;;;;;;;;;;;-3.35;100.00;102723.69;5478141;32;34933;-72
2022/12/19 02:41:55;;;;;;;;;;;;;;;-3.37;100.00;102724.56;5489708;32;34169;-71
2022/12/19 02:45:08;;;;;;;;;;;;;;;-3.51;100.00;102730.81;5491027;32;34621;-71
2022/12/19 02:48:17;;;;;;;;;;;;;;;-3.50;100.00;102726.50;5491098;32;34768;-72
2022/12/19 02:51:25;;;;;;;;;;;;;;;-3.42;100.00;102734.16;5491385;32;34257;-71
2022/12/19 02:54:32;;;;;;;;;;;;;;;-3.34;100.00;102730.56;5491314;32;34085;-71
2022/12/19 02:57:40;;;;;;;;;;;;;;;-3.29;100.00;102738.31;5490926;32;35009;-70
2022/12/19 03:01:10;;;;;;;;;;;;;;;-3.30;100.00;102734.00;5491042;32;34710;-71
2022/12/19 03:04:39;;;;;;;;;;;;;;;-3.26;100.00;102739.13;5485682;32;34538;-71
2022/12/19 03:07:58;;;;;;;;;;;;;;;-3.37;100.00;102735.81;5492979;32;34706;-70
2022/12/19 03:11:07;;;;;;;;;;;;;;;-3.30;100.00;102721.03;5550690;32;34938;-71
2022/12/19 03:14:18;;;;;;;;;;;;;;;-3.27;100.00;102723.56;5550470;32;34951;-71
2022/12/19 03:17:28;;;;;;;;;;;;;;;-3.30;100.00;102718.41;5550488;32;34098;-71
2022/12/19 03:20:35;;;;;;;;;;;;;;;-3.23;100.00;102722.63;5550346;32;34769;-71
2022/12/19 03:23:43;;;;;;;;;;;;;;;-3.42;100.00;102714.25;5550374;32;34250;-70
2022/12/19 03:26:57;;;;;;;;;;;;;;;-3.32;100.00;102707.19;5550302;32;34257;-70
2022/12/19 03:30:12;;;;;;;;;;;;;;;-3.22;100.00;102703.59;5550256;32;34197;-71
2022/12/19 03:33:20;;;;;;;;;;;;;;;-3.52;100.00;102690.19;5536192;32;34323;-71
2022/12/19 03:36:34;;;;;;;;;;;;;;;-3.52;100.00;102690.19;5550028;32;35068;-71
2022/12/19 03:39:42;;;;;;;;;;;;;;;-3.36;100.00;102689.97;5550275;32;34305;-70
2022/12/19 03:43:09;;;;;;;;;;;;;;;-3.35;100.00;102689.09;5549843;32;34225;-71
2022/12/19 03:46:25;;;;;;;;;;;;;;;-3.28;100.00;102698.47;5549958;32;34391;-71
2022/12/19 03:49:38;;;;;;;;;;;;;;;-3.18;100.00;102698.31;5549789;32;34715;-71
2022/12/19 03:52:59;;;;;;;;;;;;;;;-3.12;100.00;102698.22;5551385;32;34313;-70
2022/12/19 03:56:13;;;;;;;;;;;;;;;-3.07;100.00;102705.94;5552278;32;34754;-71
2022/12/19 03:59:32;;;;;;;;;;;;;;;-2.97;100.00;102704.06;5552172;32;34302;-71
2022/12/19 04:02:42;;;;;;;;;;;;;;;-2.88;100.00;102707.34;5551631;32;34977;-71
2022/12/19 04:05:52;;;;;;;;;;;;;;;-2.89;100.00;102703.03;5552272;32;34209;-71
2022/12/19 04:08:58;;;;;;;;;;;;;;;-3.01;100.00;102702.41;5552127;32;35020;-71
2022/12/19 04:12:07;;;;;;;;;;;;;;;-3.04;100.00;102699.81;5552176;32;34145;-72
2022/12/19 04:15:15;;;;;;;;;;;;;;;-3.12;100.00;102699.97;5552134;32;35064;-71
2022/12/19 04:18:24;;;;;;;;;;;;;;;-3.06;100.00;102699.88;5552065;32;34731;-72
2022/12/19 04:21:34;;;;;;;;;;;;;;;-3.14;100.00;102705.16;5552200;32;34721;-71
2022/12/19 04:24:45;;;;;;;;;;;;;;;-2.94;100.00;102699.66;5552070;32;34233;-71
2022/12/19 04:27:57;;;;;;;;;;;;;;;-2.90;100.00;102703.91;5538350;32;34669;-72
2022/12/19 04:31:04;;;;;;;;;;;;;;;-2.93;100.00;102703.12;5551981;32;34679;-71
2022/12/19 04:34:11;;;;;;;;;;;;;;;-2.94;100.00;102704.00;5551943;32;34347;-72
2022/12/19 04:37:17;;;;;;;;;;;;;;;-2.89;100.00;102707.38;5552182;32;34373;-72
2022/12/19 04:40:23;;;;;;;;;;;;;;;-3.00;100.00;102714.50;5551750;32;34405;-72
2022/12/19 04:43:29;;;;;;;;;;;;;;;-2.98;100.00;102699.75;5554391;32;34865;-70
2022/12/19 04:46:36;;;;;;;;;;;;;;;-2.66;100.00;102703.50;5571137;32;34594;-70
2022/12/19 04:49:45;;;;;;;;;;;;;;;-2.61;100.00;102703.41;5571365;32;34184;-70
2022/12/19 04:52:53;;;;;;;;;;;;;;;-2.68;100.00;102688.84;5571148;32;34990;-70
2022/12/19 04:56:02;;;;;;;;;;;;;;;-2.58;100.00;102699.91;5571288;32;32771;-70
2022/12/19 04:59:09;;;;;;;;;;;;;;;-2.55;100.00;102700.72;5557614;32;34296;-70
2022/12/19 05:02:18;;;;;;;;;;;;;;;-2.54;100.00;102712.84;5570966;32;34278;-71
2022/12/19 05:05:24;;;;;;;;;;;;;;;-2.65;100.00;102705.22;5570632;32;34960;-70
2022/12/19 05:08:35;;;;;;;;;;;;;;;-2.56;100.00;102696.41;5571102;32;34998;-71
2022/12/19 05:11:41;;;;;;;;;;;;;;;-2.64;100.00;102696.53;5570853;32;35079;-70
2022/12/19 05:14:49;;;;;;;;;;;;;;;-2.65;100.00;102694.81;5570983;32;34886;-72
2022/12/19 05:17:56;;;;;;;;;;;;;;;-2.48;100.00;102704.94;5570995;32;34229;-72
2022/12/19 05:21:05;;;;;;;;;;;;;;;-2.37;100.00;102710.75;5570965;32;34252;-71
2022/12/19 05:24:11;;;;;;;;;;;;;;;-2.28;100.00;102710.63;5570922;32;34280;-71
2022/12/19 05:27:16;;;;;;;;;;;;;;;-2.35;100.00;102697.75;5570821;32;34254;-71
2022/12/19 05:30:23;;;;;;;;;;;;;;;-2.33;100.00;102691.66;5570848;32;34638;-71
2022/12/19 05:33:29;;;;;;;;;;;;;;;-2.33;100.00;102696.84;5570513;32;34179;-71
2022/12/19 05:36:35;;;;;;;;;;;;;;;-2.33;100.00;102691.66;5570861;32;34898;-72
2022/12/19 05:39:43;;;;;;;;;;;;;;;-2.36;100.00;102685.62;5570717;31;34291;-71
2022/12/19 05:42:52;;;;;;;;;;;;;;;-2.41;100.00;102687.47;5570681;32;35066;-71
2022/12/19 05:45:59;;;;;;;;;;;;;;;-2.24;100.00;102690.59;5570668;32;34549;-71
2022/12/19 05:49:03;;;;;;;;;;;;;;;-2.10;100.00;102693.78;5570456;32;34949;-71
2022/12/19 05:52:10;;;;;;;;;;;;;;;-2.22;100.00;102688.81;5557348;32;34781;-71
2022/12/19 05:55:16;;;;;;;;;;;;;;;-2.21;100.00;102685.34;5570760;32;34296;-71
2022/12/19 05:58:23;;;;;;;;;;;;;;;-2.18;100.00;102694.84;5570245;32;34825;-71
2022/12/19 06:01:29;;;;;;;;;;;;;;;-2.31;100.00;102684.66;5570396;32;34707;-71
2022/12/19 06:04:37;;;;;;;;;;;;;;;-2.21;100.00;102691.41;5570499;32;34366;-70
2022/12/19 06:07:41;;;;;;;;;;;;;;;-2.13;100.00;102691.22;5570502;32;34272;-70
2022/12/19 06:10:45;;;;;;;;;;;;;;;-2.10;100.00;102693.78;5570888;32;34791;-70
2022/12/19 06:13:50;;;;;;;;;;;;;;;-2.07;100.00;102698.06;5570029;32;34821;-70
2022/12/19 06:16:55;;;;;;;;;;;;;;;-2.06;100.00;102708.44;5570609;32;34229;-71
2022/12/19 06:19:57;;;;;;;;;;;;;;;-2.09;100.00;102705.91;5556682;32;34270;-70
2022/12/19 06:23:01;;;;;;;;;;;;;;;-1.91;100.00;102710.75;5570035;32;34292;-71
2022/12/19 06:26:07;;;;;;;;;;;;;;;-1.87;100.00;102708.91;5556600;32;34743;-70
2022/12/19 06:29:15;;;;;;;;;;;;;;;-1.88;100.00;102712.41;5570288;32;34511;-70
2022/12/19 06:32:19;;;;;;;;;;;;;;;-1.89;100.00;102708.13;5570282;32;34861;-72
2022/12/19 06:35:23;;;;;;;;;;;;;;;-1.79;100.00;102707.00;5570229;32;34857;-71
2022/12/19 06:38:27;;;;;;;;;;;;;;;-1.85;100.00;102710.63;5570140;32;34681;-71
2022/12/19 06:44:55;;;;;;;;;;;;;;;-1.78;100.00;102713.94;5569752;32;35123;-71
2022/12/19 06:48:00;;;;;;;;;;;;;;;-1.75;100.00;102713.88;5569734;32;34371;-71
2022/12/19 06:51:05;;;;;;;;;;;;;;;-1.61;100.00;102717.03;5569950;32;34263;-71
2022/12/19 06:54:10;;;;;;;;;;;;;;;-1.69;100.00;102726.75;5569742;32;34263;-72
2022/12/19 06:57:13;;;;;;;;;;;;;;;-1.69;100.00;102715.50;5556002;32;34952;-72
2022/12/19 07:00:17;;;;;;;;;;;;;;;-1.74;100.00;102719.94;5569014;32;34296;-71
2022/12/19 07:03:25;;;;;;;;;;;;;;;-1.70;100.00;102717.25;5569940;32;34224;-71
2022/12/19 07:06:29;;;;;;;;;;;;;;;-1.67;100.00;102719.78;5569703;32;34655;-71
2022/12/19 07:09:34;;;;;;;;;;;;;;;-1.56;100.00;102722.16;5569733;32;34162;-70
2022/12/19 07:12:38;;;;;;;;;;;;;;;-1.48;100.00;102725.44;5569598;32;34271;-70
2022/12/19 07:15:41;;;;;;;;;;;;;;;-1.61;100.00;102726.59;5569485;32;35076;-71
2022/12/19 07:18:44;;;;;;;;;;;;;;;-1.63;100.00;102729.22;5569720;32;35296;-70
2022/12/19 07:21:48;;;;;;;;;;;;;;;-1.49;100.00;102734.97;5569494;32;34958;-71
2022/12/19 07:24:53;;;;;;;;;;;;;;;-1.52;100.00;102731.59;5556210;32;34146;-71
2022/12/19 07:27:57;;;;;;;;;;;;;;;-1.51;100.00;102734.19;5568523;32;34943;-71
2022/12/19 07:31:03;;;;;;;;;;;;;;;-1.56;100.00;102729.97;5555890;32;34769;-71
2022/12/19 07:34:08;;;;;;;;;;;;;;;-1.57;100.00;102728.25;5569317;32;34892;-71
2022/12/19 07:37:11;;;;;;;;;;;;;;;-1.60;100.00;102738.72;5569328;32;34228;-72
2022/12/19 07:40:14;;;;;;;;;;;;;;;-1.60;100.00;102731.78;5569089;32;34983;-71
2022/12/19 07:43:17;;;;;;;;;;;;;;;-1.65;100.00;102736.22;5569181;32;34734;-72
2022/12/19 07:46:21;;;;;;;;;;;;;;;-1.48;100.00;102731.50;5568815;32;34540;-71
2022/12/19 07:49:23;;;;;;;;;;;;;;;-1.54;100.00;102723.81;5569043;32;34231;-71
2022/12/19 07:52:28;;;;;;;;;;;;;;;-1.49;100.00;102723.72;5569107;32;34871;-73
2022/12/19 07:55:32;;;;;;;;;;;;;;;-1.57;100.00;102731.69;5555025;32;34291;-73
2022/12/19 07:58:34;;;;;;;;;;;;;;;-1.53;100.00;102730.75;5569160;32;34978;-71
2022/12/19 08:01:39;;;;;;;;;;;;;;;-1.44;100.00;102750.50;5569065;32;34252;-71
2022/12/19 08:04:42;;;;;;;;;;;;;;;-1.44;100.00;102751.34;5568833;32;34309;-70
2022/12/19 08:07:47;;;;;;;;;;;;;;;-1.42;100.00;102756.53;5568731;32;34255;-71
2022/12/19 08:10:51;;;;;;;;;;;;;;;-1.35;100.00;102748.56;5568279;32;34135;-71
2022/12/19 08:13:56;;;;;;;;;;;;;;;-1.18;100.00;102756.00;5568355;32;34995;-71
2022/12/19 08:16:59;;;;;;;;;;;;;;;-1.36;100.00;102759.03;5554901;32;33709;-72
2022/12/19 08:20:22;;;;;;;;;;;;;;;-1.52;100.00;102768.03;5568502;32;34836;-70
2022/12/19 08:23:28;;;;;;;;;;;;;;;-1.71;100.00;102764.97;5569050;32;34935;-72
2022/12/19 08:26:31;;;;;;;;;;;;;;;-1.47;100.00;102772.25;5568571;32;34203;-71
2022/12/19 08:29:42;;;;;;;;;;;;;;;-1.44;100.00;102771.31;5568471;32;34922;-72
2022/12/19 08:32:45;;;;;;;;;;;;;;;-1.35;100.00;102766.78;5568197;32;34693;-70
2022/12/19 08:35:50;;;;;;;;;;;;;;;-1.65;100.00;102771.81;5568290;32;33737;-71
2022/12/19 08:38:53;;;;;;;;;;;;;;;-1.59;100.00;102756.88;5570210;32;34938;-72
2022/12/19 08:41:56;;;;;;;;;;;;;;;-1.60;100.00;102750.00;5571309;32;34198;-71
2022/12/19 08:45:01;;;;;;;;;;;;;;;-1.48;100.00;102743.66;5557255;32;34069;-72
2022/12/19 08:48:05;;;;;;;;;;;;;;;-1.57;100.00;102751.66;5571057;32;34449;-71
2022/12/19 08:51:07;;;;;;;;;;;;;;;-1.51;100.00;102742.00;5570605;32;34885;-71
2022/12/19 08:54:11;;;;;;;;;;;;;;;-1.77;100.00;102745.13;5571133;32;34260;-71
2022/12/19 08:57:14;;;;;;;;;;;;;;;-1.83;100.00;102741.78;5571220;32;34907;-71
2022/12/19 09:00:19;;;;;;;;;;;;;;;-1.65;100.00;102730.16;5571047;32;34035;-71
2022/12/19 09:03:24;;;;;;;;;;;;;;;-1.50;100.00;102732.44;5571044;32;34274;-71
2022/12/19 09:06:40;;;;;;;;;;;;;;;-1.43;100.00;102737.47;5571010;32;34233;-71
2022/12/19 09:09:44;;;;;;;;;;;;;;;-1.39;100.00;102730.44;5543949;32;33238;-71
2022/12/19 09:12:49;;;;;;;;;;;;;;;-1.17;100.00;102731.66;5570913;32;34151;-70
2022/12/19 09:16:00;;;;;;;;;;;;;;;-1.21;100.00;102734.38;5556699;32;34659;-70
2022/12/19 09:19:05;;;;;;;;;;;;;;;-0.97;100.00;102731.22;5570726;32;35024;-71
2022/12/19 09:22:09;;;;;;;;;;;;;;;-0.99;100.00;102728.63;5570722;32;34291;-70
2022/12/19 09:25:14;;;;;;;;;;;;;;;-0.72;100.00;102737.50;5570653;32;34321;-70
2022/12/19 09:28:16;;;;;;;;;;;;;;;-1.09;100.00;102745.37;5570977;32;34865;-72
2022/12/19 09:31:29;;;;;;;;;;;;;;;-0.75;100.00;102752.37;5570838;32;34539;-72
2022/12/19 09:34:32;;;;;;;;;;;;;;;-0.68;100.00;102753.94;5570632;32;34223;-72
2022/12/19 09:37:41;;;;;;;;;;;;;;;-0.43;100.00;102755.00;5570748;32;34819;-71
2022/12/19 09:40:56;;;;;;;;;;;;;;;-0.78;100.00;102735.06;5556375;32;32246;-72
2022/12/19 09:44:19;;;;;;;;;;;;;;;-0.79;100.00;102727.28;5570822;32;34292;-71
2022/12/19 09:47:23;;;;;;;;;;;;;;;-0.80;100.00;102718.59;5570562;32;34710;-72
2022/12/19 09:50:45;;;;;;;;;;;;;;;-0.48;100.00;102712.56;5569788;32;35065;-71
2022/12/19 09:53:58;;;;;;;;;;;;;;;-0.71;100.00;102712.31;5556657;32;34178;-71
2022/12/19 09:57:04;;;;;;;;;;;;;;;-0.76;100.00;102704.59;5570634;32;34295;-71
2022/12/19 10:00:07;;;;;;;;;;;;;;;-0.55;100.00;102705.81;5570609;32;34781;-71
2022/12/19 10:03:16;;;;;;;;;;;;;;;-0.47;100.00;102709.91;5570508;32;34251;-71
2022/12/19 10:06:21;;;;;;;;;;;;;;;-0.37;100.00;102707.91;5570417;32;34116;-71
2022/12/19 10:09:47;;;;;;;;;;;;;;;0.01;100.00;102699.03;5570748;32;34659;-71
2022/12/19 10:13:26;;;;;;;;;;;;;;;-0.28;100.00;102693.78;5569719;32;34243;-72
2022/12/19 10:16:43;;;;;;;;;;;;;;;-0.48;100.00;102694.31;5569994;32;35015;-72
2022/12/19 10:20:19;;;;;;;;;;;;;;;-0.40;100.00;102674.13;5569935;32;35010;-72
2022/12/19 10:23:25;;;;;;;;;;;;;;;-0.34;100.00;102684.37;5570108;32;34396;-72
2022/12/19 10:26:40;;;;;;;;;;;;;;;-0.30;100.00;102688.63;5570053;32;34194;-72
2022/12/19 10:30:03;;;;;;;;;;;;;;;-0.07;100.00;102690.56;5570185;32;34154;-72
2022/12/19 10:33:17;;;;;;;;;;;;;;;0.14;100.00;102687.34;5570070;32;34225;-72
2022/12/19 10:36:24;;;;;;;;;;;;;;;0.28;100.00;102689.56;5556252;32;32734;-73
2022/12/19 10:39:50;;;;;;;;;;;;;;;0.08;100.00;102677.09;5569942;32;34234;-71
2022/12/19 10:42:59;;;;;;;;;;;;;;;0.15;100.00;102669.91;5557318;32;34620;-73
2022/12/19 10:46:14;;;;;;;;;;;;;;;0.54;100.00;102670.47;5557648;32;34363;-72
2022/12/19 10:49:20;;;;;;;;;;;;;;;0.47;100.00;102661.13;5570073;32;34107;-72
2022/12/19 10:52:44;;;;;;;;;;;;;;;0.35;100.00;102655.38;5570092;32;35021;-72
2022/12/19 10:55:50;;;;;;;;;;;;;;;0.17;100.00;102655.94;5556736;32;33128;-73
2022/12/19 10:58:58;;;;;;;;;;;;;;;0.18;100.00;102659.41;5571464;32;34218;-71
2022/12/19 11:02:11;;;;;;;;;;;;;;;0.56;100.00;102653.87;5569101;32;34481;-72
2022/12/19 11:05:20;;;;;;;;;;;;;;;0.67;100.00;102650.91;5556465;32;35046;-71
2022/12/19 11:08:26;;;;;;;;;;;;;;;0.43;100.00;102642.09;5569777;32;34291;-72
2022/12/19 11:11:33;;;;;;;;;;;;;;;0.36;100.00;102641.44;5555927;32;34003;-71
2022/12/19 11:15:13;;;;;;;;;;;;;;;0.63;100.00;102633.63;5569264;32;34913;-71
2022/12/19 11:18:37;;;;;;;;;;;;;;;0.94;100.00;102639.56;5569808;32;34749;-71
2022/12/19 11:22:06;;;;;;;;;;;;;;;1.07;100.00;102646.06;5569833;32;34242;-71
2022/12/19 11:25:36;;;;;;;;;;;;;;;1.19;100.00;102636.97;5569835;32;34351;-71
2022/12/19 11:29:04;;;;;;;;;;;;;;;1.20;100.00;102644.75;5555827;32;33175;-71
2022/12/19 11:32:31;;;;;;;;;;;;;;;0.65;100.00;102624.84;5555709;32;32948;-72
2022/12/19 11:35:49;;;;;;;;;;;;;;;0.64;100.00;102617.91;5569552;32;34336;-71
2022/12/19 11:38:54;;;;;;;;;;;;;;;1.06;100.00;102625.22;5569382;31;34281;-71
2022/12/19 11:42:20;;;;;;;;;;;;;;;0.94;99.63;102625.63;5555348;32;34276;-71
2022/12/19 11:45:31;;;;;;;;;;;;;;;0.94;100.00;102617.78;5542651;32;35252;-71
2022/12/19 11:48:40;;;;;;;;;;;;;;;1.22;99.71;102600.25;5569409;32;34247;-71
2022/12/19 11:51:50;;;;;;;;;;;;;;;0.81;100.00;102596.44;5555512;32;34114;-71
2022/12/19 11:54:53;;;;;;;;;;;;;;;0.77;100.00;102600.94;5569004;32;34199;-71
2022/12/19 11:57:56;;;;;;;;;;;;;;;0.88;100.00;102584.88;5568681;32;34826;-71
2022/12/19 12:01:10;;;;;;;;;;;;;;;0.77;100.00;102589.63;5555253;32;35352;-71
2022/12/19 12:04:32;;;;;;;;;;;;;;;0.94;100.00;102587.28;5568846;32;34793;-71
2022/12/19 12:07:36;;;;;;;;;;;;;;;0.73;100.00;102577.53;5555298;32;35282;-71
2022/12/19 12:11:07;;;;;;;;;;;;;;;0.78;100.00;102568.66;5569011;32;34131;-71
2022/12/19 12:15:01;;;;;;;;;;;;;;;0.52;100.00;102579.13;5546541;32;34101;-70
2022/12/19 12:18:48;;;;;;;;;;;;;;;0.56;100.00;102575.50;5567794;32;34315;-71
2022/12/19 12:22:12;;;;;;;;;;;;;;;0.96;100.00;102572.41;5571476;32;34101;-70
2022/12/19 12:25:37;;;;;;;;;;;;;;;1.09;100.00;102571.06;5571513;32;34174;-71
2022/12/19 12:29:13;;;;;;;;;;;;;;;1.21;100.00;102557.56;5571492;32;34236;-70
2022/12/19 12:32:50;;;;;;;;;;;;;;;0.89;100.00;102552.63;5557436;32;34245;-71
2022/12/19 12:36:20;;;;;;;;;;;;;;;1.05;100.00;102566.00;5571048;32;34802;-71
2022/12/19 12:39:56;;;;;;;;;;;;;;;1.14;100.00;102561.31;5571457;32;34781;-71
2022/12/19 12:43:07;;;;;;;;;;;;;;;0.60;100.00;102563.19;5571479;32;34880;-70
2022/12/19 12:46:16;;;;;;;;;;;;;;;0.91;100.00;102568.25;5571404;32;34308;-71
2022/12/19 12:49:34;;;;;;;;;;;;;;;0.58;100.00;102565.84;5557568;32;34356;-71
2022/12/19 12:52:44;;;;;;;;;;;;;;;0.74;100.00;102566.19;5571379;32;34289;-71
2022/12/19 12:55:48;;;;;;;;;;;;;;;0.82;100.00;102556.38;5571111;32;34934;-71
2022/12/19 12:58:52;;;;;;;;;;;;;;;0.79;100.00;102556.44;5571557;32;34566;-71
2022/12/19 13:01:58;;;;;;;;;;;;;;;0.58;100.00;102546.75;5557317;32;35402;-70
2022/12/19 13:05:22;;;;;;;;;;;;;;;0.36;100.00;102541.34;5570786;32;34355;-70
2022/12/19 13:08:38;;;;;;;;;;;;;;;0.42;100.00;102549.00;5544512;32;35193;-70
2022/12/19 13:15:36;;;;;;;;;;;;;;;0.07;100.00;102544.03;5556863;32;34902;-70
2022/12/19 13:18:39;;;;;;;;;;;;;;;0.27;100.00;102544.25;5555347;32;34943;-70
2022/12/19 13:22:02;;;;;;;;;;;;;;;0.10;100.00;102544.78;5557035;32;34538;-70
2022/12/19 13:25:24;;;;;;;;;;;;;;;0.12;100.00;102544.75;5570127;32;34816;-71
2022/12/19 13:28:27;;;;;;;;;;;;;;;0.21;100.00;102536.62;5571037;32;34196;-70
2022/12/19 13:31:34;;;;;;;;;;;;;;;-0.03;100.00;102546.94;5570865;32;34406;-71
2022/12/19 13:34:36;;;;;;;;;;;;;;;-0.30;100.00;102539.97;5570960;32;34319;-70
2022/12/19 13:37:59;;;;;;;;;;;;;;;-0.30;100.00;102526.91;5570981;32;34760;-71
2022/12/19 13:44:53;;;;;;;;;;;;;;;-0.31;100.00;102522.59;5570613;32;34341;-71
2022/12/19 13:47:59;;;;;;;;;;;;;;;-0.34;100.00;102517.47;5570512;32;34063;-71
2022/12/19 13:51:05;;;;;;;;;;;;;;;-0.33;100.00;102520.91;5570613;32;34799;-71
2022/12/19 13:54:19;;;;;;;;;;;;;;;-0.48;100.00;102523.09;5556881;32;34073;-71
2022/12/19 13:57:23;;;;;;;;;;;;;;;-0.47;100.00;102524.78;5570581;32;34707;-71
2022/12/19 14:00:40;;;;;;;;;;;;;;;-0.66;100.00;102526.22;5570729;32;34177;-71
2022/12/19 14:03:45;;;;;;;;;;;;;;;-0.93;100.00;102524.41;5570620;32;34854;-71
2022/12/19 14:06:55;;;;;;;;;;;;;;;-0.97;100.00;102521.00;5556917;32;34169;-70
2022/12/19 14:10:00;;;;;;;;;;;;;;;-1.11;100.00;102517.94;5570625;32;34761;-71
2022/12/19 14:17:06;;;;;;;;;;;;;;;-1.17;100.00;102518.13;5556511;32;34207;-70
2022/12/19 14:20:17;;;;;;;;;;;;;;;-1.12;100.00;102521.44;5570272;32;34571;-71
2022/12/19 14:23:42;;;;;;;;;;;;;;;-1.15;100.00;102520.66;5570415;32;34212;-71
2022/12/19 14:26:49;;;;;;;;;;;;;;;-1.31;100.00;102512.41;5570396;32;34060;-71
2022/12/19 14:30:17;;;;;;;;;;;;;;;-1.33;100.00;102504.63;5570153;32;34859;-70
2022/12/19 14:33:38;;;;;;;;;;;;;;;-1.52;100.00;102513.81;5570292;32;34916;-70
2022/12/19 14:37:04;;;;;;;;;;;;;;;-1.57;100.00;102526.09;5569714;32;34399;-70
2022/12/19 14:40:13;;;;;;;;;;;;;;;-1.53;100.00;102504.28;5569916;32;34855;-71
2022/12/19 14:43:39;;;;;;;;;;;;;;;-1.69;100.00;102510.75;5569952;32;34421;-71
2022/12/19 14:47:13;;;;;;;;;;;;;;;-1.82;100.00;102514.56;5556089;32;34975;-70
2022/12/19 14:50:40;;;;;;;;;;;;;;;-1.91;100.00;102520.84;5570125;32;34120;-70
2022/12/19 14:54:16;;;;;;;;;;;;;;;-1.99;100.00;102514.13;5569857;32;34230;-70
2022/12/19 14:57:42;;;;;;;;;;;;;;;-2.03;100.00;102517.69;5569846;32;34777;-71
2022/12/19 15:01:20;;;;;;;;;;;;;;;-2.09;100.00;102518.69;5569811;32;34155;-71
2022/12/19 15:04:31;;;;;;;;;;;;;;;-2.16;100.00;102509.28;5569850;32;34123;-70
2022/12/19 15:07:57;;;;;;;;;;;;;;;-2.24;100.00;102511.22;5569989;32;34161;-71
2022/12/19 15:14:48;;;;;;;;;;;;;;;-2.24;100.00;102509.47;5569450;32;34590;-70
2022/12/19 15:18:03;;;;;;;;;;;;;;;-2.24;100.00;102524.22;5569549;32;34208;-71
2022/12/19 15:21:11;;;;;;;;;;;;;;;-2.35;100.00;102529.66;5569685;32;35026;-70
2022/12/19 15:24:16;;;;;;;;;;;;;;;-2.47;100.00;102531.66;5569625;32;34853;-70
2022/12/19 15:27:21;;;;;;;;;;;;;;;-2.43;100.00;102531.56;5569508;32;34218;-70
2022/12/19 15:30:30;;;;;;;;;;;;;;;-2.44;100.00;102529.84;5569196;32;34862;-70
2022/12/19 15:33:35;;;;;;;;;;;;;;;-2.38;100.00;102526.28;5555833;32;35135;-70
2022/12/19 15:37:00;;;;;;;;;;;;;;;-2.34;100.00;102525.31;5569243;32;34813;-72
2022/12/19 15:40:05;;;;;;;;;;;;;;;-2.40;100.00;102533.22;5568842;32;34379;-70
2022/12/19 15:43:18;;;;;;;;;;;;;;;-2.38;100.00;102526.28;5555097;32;35436;-72
2022/12/19 15:46:42;;;;;;;;;;;;;;;-2.37;100.00;102531.41;5554716;32;34503;-70
2022/12/19 15:49:51;;;;;;;;;;;;;;;-2.38;100.00;102532.31;5571259;32;34444;-70
2022/12/19 15:52:57;;;;;;;;;;;;;;;-2.43;100.00;102525.50;5544574;32;34924;-70
2022/12/19 15:56:02;;;;;;;;;;;;;;;-2.43;100.00;102521.16;5557441;32;34340;-72
2022/12/19 15:59:27;;;;;;;;;;;;;;;-2.42;100.00;102515.06;5571403;32;34323;-72
2022/12/19 16:02:41;;;;;;;;;;;;;;;-2.37;100.00;102525.37;5571304;32;34935;-73
2022/12/19 16:06:14;;;;;;;;;;;;;;;-2.55;100.00;102518.81;5571421;32;34654;-71
2022/12/19 16:09:22;;;;;;;;;;;;;;;-2.47;100.00;102510.88;5571255;32;34821;-70
2022/12/19 16:12:33;;;;;;;;;;;;;;;-2.51;100.00;102510.06;5571795;32;34303;-71
2022/12/19 16:15:45;;;;;;;;;;;;;;;-2.52;100.00;102517.91;5571392;32;34271;-70
2022/12/19 16:18:51;;;;;;;;;;;;;;;-2.45;100.00;102511.69;5557515;32;32569;-71
2022/12/19 16:21:57;;;;;;;;;;;;;;;-2.42;100.00;102509.03;5571103;32;34809;-70
2022/12/19 16:25:03;;;;;;;;;;;;;;;-2.44;100.00;102503.00;5570968;32;34470;-71
2022/12/19 16:28:11;;;;;;;;;;;;;;;-2.40;100.00;102510.69;5571592;32;34185;-70
2022/12/19 16:31:22;;;;;;;;;;;;;;;-2.33;100.00;102501.88;5571614;32;34207;-71
2022/12/19 16:34:28;;;;;;;;;;;;;;;-2.28;100.00;102497.44;5557105;32;35002;-70